Pagina principale
METAR-TAF:

METAR-TAF

Aeroporti :

Locarno, Svizzera

Aeroporto di Magadino

latitudine: 46-09-55N, longitudine: 8-52-40E, altezza: 198 m

Osservazione

Il bollettino è stato emesso 51 minuti fa, alle 08:50 UTC
Vento 4 kt da ovest/sud-ovest, variando fra sud/sud-ovest e ovest
Temperature 24°C
Umidità 69%
Pressione 1018 hPa
Visibilità 10 km o più
nessuna nube inferiore a 1500 m e nessun cumulonembo

METAR: LSZL 290850Z 24004KT 210V280 CAVOK 24/18 Q1018 RMK BLU

Ora: 11:41 (09:41 UTC)

Previsione

Il bollettino è stato emesso 1 ora e 42 minuti fa, alle 07:59 UTC
Previsione valida dal 29 alle 07 UTC al 29 alle 15 UTC
Vento 1 kt da direzioni variabili
Visibilità 10 km o più
nessuna nube inferiore a 1500 m e nessun cumulonembo
Temporaneamente
dal 29 alle 09 UTC al 29 alle 15 UTC
Visibilità 10 km o più
Poco nuvoloso ad un'altezza di 5000 ft

TAF: LSZL 290759Z 2907/2915 VRB01KT CAVOK TEMPO 2909/2915 9999 FEW050

Osservazioni e previsioni meteorologiche di più di 4000 aeroporti (messaggi METAR e TAF).

Le stazioni disponibili sono rappresentate dai dischi gialli e rossi sulla carta.

Puntare il mouse per vedere il nome della stazione.

Clicca sopra per visualizzare le osservazioni e previsioni meteorologiche.

Per cambiare la mappa : fare clic sui pulsanti verdi con una croce nera per ingrandire, il pulsante verde con un trattino per diminuire, o sulla freccia verde per le mappe adiacenti.


METAR-TAF: